Time;durP1;ratioP1;P1;durP2;ratioP2;P2;SDS_P1;SDS_P2;PMS_P1;PMS_P2;Temp;Humidity;BMP_temperature;BMP_pressure;BME280_temperature;BME280_humidity;BME280_pressure;Samples;Min_cycle;Max_cycle;Signal;HPM_P1;HPM_P2
2022/04/23 00:00:56;;;;;;;24.70;18.75;;;8.60;99.90;;;;;;2507318;23;20006;-72
2022/04/23 00:01:56;;;;;;;24.73;18.15;;;8.60;99.90;;;;;;2507362;23;20015;-72
2022/04/23 00:02:59;;;;;;;23.83;17.95;;;8.60;99.90;;;;;;2507166;23;20007;-72
2022/04/23 00:03:59;;;;;;;23.15;17.60;;;8.70;99.90;;;;;;2494313;23;20011;-72
2022/04/23 00:05:00;;;;;;;24.13;18.10;;;8.60;99.90;;;;;;2494682;23;20007;-72
2022/04/23 00:06:02;;;;;;;24.30;18.13;;;8.60;99.90;;;;;;2507607;23;20014;-72
2022/04/23 00:07:04;;;;;;;21.88;17.13;;;8.60;99.90;;;;;;2507436;23;20454;-71
2022/04/23 00:08:05;;;;;;;24.58;18.20;;;8.60;99.90;;;;;;2507198;23;20030;-72
2022/04/23 00:09:06;;;;;;;23.10;17.42;;;8.60;99.90;;;;;;2507372;23;20479;-72
2022/04/23 00:10:08;;;;;;;23.42;18.17;;;8.60;99.90;;;;;;2507485;23;20007;-72
2022/04/23 00:11:09;;;;;;;23.90;17.92;;;8.60;99.90;;;;;;2507765;23;20007;-73
2022/04/23 00:12:10;;;;;;;24.58;18.60;;;8.60;99.90;;;;;;2507546;23;20046;-72
2022/04/23 00:13:10;;;;;;;23.08;17.73;;;8.60;99.90;;;;;;2494669;23;20043;-73
2022/04/23 00:14:11;;;;;;;24.25;17.95;;;8.60;99.90;;;;;;2483074;23;20000;-72
2022/04/23 00:15:12;;;;;;;24.17;17.80;;;8.60;99.90;;;;;;2494730;23;20090;-72
2022/04/23 00:16:14;;;;;;;21.70;16.67;;;8.50;99.90;;;;;;2507360;23;20018;-72
2022/04/23 00:17:14;;;;;;;22.50;17.48;;;8.50;99.90;;;;;;2507303;23;20054;-72
2022/04/23 00:18:16;;;;;;;21.88;17.20;;;8.50;99.90;;;;;;2507370;23;20002;-72
2022/04/23 00:19:20;;;;;;;23.95;18.35;;;8.40;99.90;;;;;;2507481;23;19999;-72
2022/04/23 00:20:23;;;;;;;23.48;18.23;;;8.40;99.90;;;;;;2507245;23;20013;-72
2022/04/23 00:21:24;;;;;;;23.10;17.50;;;8.40;99.90;;;;;;2507283;23;20062;-72
2022/04/23 00:22:24;;;;;;;24.05;18.20;;;8.40;99.90;;;;;;2507276;23;20002;-72
2022/04/23 00:23:26;;;;;;;23.98;17.92;;;8.40;99.90;;;;;;2506863;23;20038;-72
2022/04/23 00:24:26;;;;;;;23.65;17.58;;;8.30;99.90;;;;;;2507129;23;20035;-72
2022/04/23 00:25:27;;;;;;;23.50;17.63;;;8.30;99.90;;;;;;2507134;23;19999;-72
2022/04/23 00:26:28;;;;;;;24.00;17.83;;;8.30;99.90;;;;;;2507344;23;20018;-72
2022/04/23 00:27:28;;;;;;;21.65;17.25;;;8.30;99.90;;;;;;2507864;23;19999;-72
2022/04/23 00:28:29;;;;;;;22.05;17.05;;;8.20;99.90;;;;;;2508633;23;20001;-72
2022/04/23 00:29:30;;;;;;;25.42;18.38;;;8.20;99.90;;;;;;2508591;23;20456;-72
2022/04/23 00:30:31;;;;;;;23.05;17.73;;;8.20;99.90;;;;;;2508237;23;20082;-71
2022/04/23 00:31:31;;;;;;;25.05;17.95;;;8.20;99.90;;;;;;2507763;23;20098;-71
2022/04/23 00:32:32;;;;;;;23.67;17.92;;;8.20;99.90;;;;;;2507877;23;20494;-71
2022/04/23 00:33:37;;;;;;;24.73;18.10;;;8.10;99.90;;;;;;2508354;23;20633;-71
2022/04/23 00:34:38;;;;;;;27.08;18.75;;;8.10;99.90;;;;;;2508653;23;20054;-72
2022/04/23 00:35:38;;;;;;;24.15;18.45;;;8.10;99.90;;;;;;2508531;23;20010;-71
2022/04/23 00:36:39;;;;;;;24.13;18.08;;;8.10;99.90;;;;;;2508502;23;20022;-71
2022/04/23 00:37:41;;;;;;;25.98;18.48;;;8.00;99.90;;;;;;2508592;23;20007;-71
2022/04/23 00:38:42;;;;;;;24.60;18.38;;;8.00;99.90;;;;;;2495810;23;20634;-71
2022/04/23 00:39:43;;;;;;;24.15;17.95;;;8.00;99.90;;;;;;2495965;23;20512;-71
2022/04/23 00:40:44;;;;;;;24.40;19.05;;;7.90;99.90;;;;;;2495864;23;20026;-71
2022/04/23 00:41:47;;;;;;;26.80;19.15;;;7.90;99.90;;;;;;2495897;23;20012;-73
2022/04/23 00:42:55;;;;;;;25.80;19.10;;;7.90;99.90;;;;;;2509098;23;20011;-73
2022/04/23 00:43:56;;;;;;;24.05;18.23;;;7.90;99.90;;;;;;2508234;23;20033;-71
2022/04/23 00:44:56;;;;;;;24.48;18.48;;;7.90;99.90;;;;;;2507675;23;20022;-72
2022/04/23 00:45:58;;;;;;;25.85;19.15;;;7.90;99.90;;;;;;2507820;23;20003;-73
2022/04/23 00:46:58;;;;;;;25.13;18.63;;;7.90;99.90;;;;;;2508439;23;20007;-72
2022/04/23 00:47:59;;;;;;;25.30;18.92;;;7.90;99.90;;;;;;2508631;23;20039;-72
2022/04/23 00:49:00;;;;;;;25.17;18.90;;;7.90;99.90;;;;;;2508728;23;20013;-71
2022/04/23 00:50:02;;;;;;;25.92;19.10;;;7.90;99.90;;;;;;2508530;23;20532;-72
2022/04/23 00:51:03;;;;;;;26.33;18.92;;;7.90;99.90;;;;;;2495979;23;20038;-71
2022/04/23 00:52:04;;;;;;;26.42;18.90;;;7.90;99.90;;;;;;2496028;23;20003;-71
2022/04/23 00:53:05;;;;;;;24.15;18.17;;;7.90;99.90;;;;;;2508421;23;19999;-71
2022/04/23 00:54:07;;;;;;;25.17;18.55;;;7.90;99.90;;;;;;2508602;23;20011;-71
2022/04/23 00:55:08;;;;;;;24.55;18.35;;;7.80;99.90;;;;;;2508571;23;20017;-71
2022/04/23 00:56:09;;;;;;;25.92;18.77;;;7.80;99.90;;;;;;2508415;23;20407;-71
2022/04/23 00:57:09;;;;;;;25.90;19.10;;;7.80;99.90;;;;;;2496017;23;20007;-72
2022/04/23 00:58:10;;;;;;;26.17;19.50;;;7.80;99.90;;;;;;2495996;23;20413;-72
2022/04/23 00:59:12;;;;;;;25.50;19.63;;;7.80;99.90;;;;;;2508618;23;20017;-73
2022/04/23 01:00:13;;;;;;;27.30;19.98;;;7.80;99.90;;;;;;2508525;23;20018;-73
2022/04/23 01:01:14;;;;;;;27.55;20.10;;;7.80;99.90;;;;;;2508660;23;20082;-73
2022/04/23 01:02:15;;;;;;;25.05;18.90;;;7.80;99.90;;;;;;2508696;23;20038;-72
2022/04/23 01:03:16;;;;;;;25.98;19.20;;;7.80;99.90;;;;;;2508374;23;20076;-72
2022/04/23 01:04:16;;;;;;;26.90;19.67;;;7.80;99.90;;;;;;2508624;23;20360;-73
2022/04/23 01:05:17;;;;;;;26.45;19.70;;;7.80;99.90;;;;;;2495560;23;20723;-70
2022/04/23 01:06:18;;;;;;;29.15;19.42;;;7.70;99.90;;;;;;2495875;23;19999;-72
2022/04/23 01:07:19;;;;;;;26.42;19.30;;;7.70;99.90;;;;;;2508525;23;20083;-72
2022/04/23 01:08:20;;;;;;;25.98;19.73;;;7.70;99.90;;;;;;2508592;23;20458;-72
2022/04/23 01:09:20;;;;;;;26.80;19.80;;;7.70;99.90;;;;;;2508472;23;19999;-73
2022/04/23 01:10:21;;;;;;;24.85;18.52;;;7.70;99.90;;;;;;2508552;23;20022;-72
2022/04/23 01:11:22;;;;;;;27.20;19.92;;;7.70;99.90;;;;;;2507717;23;20014;-73
2022/04/23 01:12:22;;;;;;;30.20;21.65;;;7.60;99.90;;;;;;2507905;23;20010;-70
2022/04/23 01:13:25;;;;;;;29.42;20.73;;;7.70;99.90;;;;;;2508185;23;20006;-73
2022/04/23 01:14:26;;;;;;;29.55;20.92;;;7.60;99.90;;;;;;2495999;23;20434;-72
2022/04/23 01:15:27;;;;;;;29.70;21.33;;;7.60;99.90;;;;;;2495803;23;20011;-72
2022/04/23 01:16:28;;;;;;;27.45;20.27;;;7.60;99.90;;;;;;2508602;23;20014;-72
2022/04/23 01:17:29;;;;;;;29.42;20.77;;;7.60;99.90;;;;;;2508668;23;20436;-72
2022/04/23 01:18:29;;;;;;;31.27;21.85;;;7.60;99.90;;;;;;2508768;23;20018;-72
2022/04/23 01:19:30;;;;;;;31.55;20.73;;;7.60;99.90;;;;;;2508446;23;20007;-72
2022/04/23 01:20:34;;;;;;;30.63;21.23;;;7.60;99.90;;;;;;2507814;23;20015;-71
2022/04/23 01:21:34;;;;;;;31.27;21.23;;;7.60;99.90;;;;;;2507916;23;20006;-72
2022/04/23 01:22:40;;;;;;;29.55;21.17;;;7.60;99.90;;;;;;2508630;23;20021;-72
2022/04/23 01:23:42;;;;;;;30.77;21.00;;;7.50;99.90;;;;;;2508356;23;20086;-71
2022/04/23 01:24:43;;;;;;;30.65;20.63;;;7.50;99.90;;;;;;2508677;23;20009;-72
2022/04/23 01:25:43;;;;;;;30.77;21.05;;;7.50;99.90;;;;;;2508607;23;20442;-71
2022/04/23 01:26:44;;;;;;;32.08;21.92;;;7.40;99.90;;;;;;2508596;23;20008;-72
2022/04/23 01:27:48;;;;;;;31.85;21.27;;;7.40;99.90;;;;;;2508618;23;20009;-71
2022/04/23 01:28:49;;;;;;;33.13;22.40;;;7.40;99.90;;;;;;2508564;23;20026;-72
2022/04/23 01:29:50;;;;;;;31.50;21.25;;;7.40;99.90;;;;;;2495862;23;20007;-71
2022/04/23 01:30:56;;;;;;;29.50;20.60;;;7.30;99.90;;;;;;2496769;23;20007;-72
2022/04/23 01:31:57;;;;;;;31.30;21.02;;;7.30;99.90;;;;;;2512357;23;20015;-72
2022/04/23 01:32:58;;;;;;;30.80;21.67;;;7.30;99.90;;;;;;2512174;23;20026;-72
2022/04/23 01:33:59;;;;;;;30.05;21.15;;;7.30;99.90;;;;;;2509893;23;20015;-72
2022/04/23 01:34:59;;;;;;;31.95;21.33;;;7.20;99.90;;;;;;2496203;23;20700;-71
2022/04/23 01:36:00;;;;;;;32.60;21.80;;;7.20;99.90;;;;;;2496098;23;20344;-72
2022/04/23 01:37:01;;;;;;;32.90;21.25;;;7.20;99.90;;;;;;2509939;23;20321;-72
2022/04/23 01:38:01;;;;;;;33.50;21.52;;;7.20;99.90;;;;;;2508585;23;20015;-72
2022/04/23 01:39:02;;;;;;;38.90;23.25;;;7.20;99.90;;;;;;2507964;23;20019;-72
2022/04/23 01:40:03;;;;;;;36.58;22.50;;;7.10;99.90;;;;;;2507618;23;20029;-72
2022/04/23 01:41:03;;;;;;;33.95;21.20;;;7.10;99.90;;;;;;2507916;23;20037;-72
2022/04/23 01:42:04;;;;;;;29.52;20.30;;;7.10;99.90;;;;;;2507862;23;20010;-72
2022/04/23 01:43:06;;;;;;;35.38;21.73;;;7.10;99.90;;;;;;2507336;23;20752;-72
2022/04/23 01:44:06;;;;;;;36.83;22.60;;;7.10;99.90;;;;;;2507793;23;20007;-72
2022/04/23 01:45:07;;;;;;;37.78;22.15;;;7.10;99.90;;;;;;2495123;23;20011;-72
2022/04/23 01:46:08;;;;;;;36.33;22.85;;;7.10;99.90;;;;;;2495276;23;20008;-72
2022/04/23 01:47:09;;;;;;;33.60;21.77;;;7.10;99.90;;;;;;2507970;23;20007;-72
2022/04/23 01:48:09;;;;;;;37.50;22.73;;;7.10;99.90;;;;;;2483458;23;20008;-72
2022/04/23 01:49:10;;;;;;;37.75;23.13;;;7.10;99.90;;;;;;2483538;23;20003;-72
2022/04/23 01:50:10;;;;;;;36.20;22.75;;;7.00;99.90;;;;;;2507896;23;20011;-72
2022/04/23 01:51:11;;;;;;;39.22;23.67;;;7.00;99.90;;;;;;2495153;23;20023;-72
2022/04/23 01:52:12;;;;;;;37.60;22.73;;;7.00;99.90;;;;;;2495323;23;20086;-72
2022/04/23 01:53:13;;;;;;;35.05;21.88;;;7.00;99.90;;;;;;2506570;23;20014;-72
2022/04/23 01:54:13;;;;;;;32.22;22.35;;;7.00;99.90;;;;;;2507261;23;20003;-72
2022/04/23 01:55:14;;;;;;;35.65;23.02;;;7.00;99.90;;;;;;2507924;23;20598;-72
2022/04/23 01:56:15;;;;;;;34.35;22.55;;;7.00;99.90;;;;;;2507826;23;20006;-72
2022/04/23 01:57:15;;;;;;;35.35;22.95;;;7.00;99.90;;;;;;2507818;23;20078;-72
2022/04/23 01:58:16;;;;;;;32.35;22.17;;;7.00;99.90;;;;;;2507691;23;20003;-72
2022/04/23 01:59:17;;;;;;;31.35;22.35;;;7.00;99.90;;;;;;2507831;23;20007;-72
2022/04/23 02:00:17;;;;;;;32.05;21.85;;;7.00;99.90;;;;;;2507720;23;20105;-72
2022/04/23 02:01:18;;;;;;;32.22;22.80;;;7.00;99.90;;;;;;2507677;23;20038;-71
2022/04/23 02:02:18;;;;;;;30.48;21.88;;;7.00;99.90;;;;;;2507861;23;20003;-72
2022/04/23 02:03:19;;;;;;;31.48;22.17;;;7.00;99.90;;;;;;2506612;23;20007;-72
2022/04/23 02:04:20;;;;;;;31.83;22.50;;;7.00;99.90;;;;;;2507069;23;20078;-72
2022/04/23 02:05:20;;;;;;;30.50;21.52;;;7.00;99.90;;;;;;2507715;23;20089;-72
2022/04/23 02:06:21;;;;;;;30.90;21.08;;;7.00;99.90;;;;;;2507470;23;20055;-72
2022/04/23 02:07:21;;;;;;;29.33;20.15;;;6.90;99.90;;;;;;2495092;23;20501;-72
2022/04/23 02:08:22;;;;;;;29.13;20.45;;;6.90;99.90;;;;;;2495158;23;20433;-72
2022/04/23 02:09:23;;;;;;;29.95;21.45;;;6.90;99.90;;;;;;2507758;23;20496;-72
2022/04/23 02:10:23;;;;;;;29.73;21.17;;;6.90;99.90;;;;;;2507653;23;20002;-72
2022/04/23 02:11:24;;;;;;;29.63;20.67;;;6.80;99.90;;;;;;2507951;23;20007;-71
2022/04/23 02:12:25;;;;;;;29.17;21.23;;;6.80;99.90;;;;;;2507881;23;20474;-72
2022/04/23 02:13:27;;;;;;;27.50;19.88;;;6.80;99.90;;;;;;2507711;23;20443;-72
2022/04/23 02:14:28;;;;;;;26.85;19.63;;;6.70;99.90;;;;;;2508444;23;20038;-72
2022/04/23 02:15:29;;;;;;;26.80;20.08;;;6.70;99.90;;;;;;2508333;23;20567;-72
2022/04/23 02:16:30;;;;;;;25.60;19.30;;;6.70;99.90;;;;;;2508208;23;20084;-72
2022/04/23 02:17:35;;;;;;;25.58;19.10;;;6.60;99.90;;;;;;2507924;23;20073;-72
2022/04/23 02:18:37;;;;;;;29.23;20.70;;;6.60;99.90;;;;;;2507668;23;20007;-72
2022/04/23 02:19:38;;;;;;;27.23;20.13;;;6.60;99.90;;;;;;2507912;23;20381;-72
2022/04/23 02:20:38;;;;;;;27.38;20.20;;;6.60;99.90;;;;;;2507722;23;20007;-72
2022/04/23 02:21:39;;;;;;;28.38;20.98;;;6.60;99.90;;;;;;2507744;23;20007;-72
2022/04/23 02:22:40;;;;;;;27.48;20.42;;;6.50;99.90;;;;;;2507757;23;20074;-72
2022/04/23 02:23:43;;;;;;;26.00;19.75;;;6.60;99.90;;;;;;2494656;23;20017;-72
2022/04/23 02:24:44;;;;;;;29.70;21.58;;;6.50;99.90;;;;;;2495383;23;20523;-70
2022/04/23 02:25:44;;;;;;;27.77;20.65;;;6.50;99.90;;;;;;2507386;23;20010;-70
2022/04/23 02:26:45;;;;;;;27.80;20.48;;;6.60;99.90;;;;;;2495037;23;20568;-72
2022/04/23 02:27:49;;;;;;;27.42;20.55;;;6.60;99.90;;;;;;2495141;23;20417;-69
2022/04/23 02:28:50;;;;;;;25.10;19.08;;;6.50;99.90;;;;;;2507459;23;20007;-72
2022/04/23 02:29:54;;;;;;;26.13;20.02;;;6.50;99.90;;;;;;2507530;23;20007;-72
2022/04/23 02:30:55;;;;;;;26.25;19.10;;;6.50;99.90;;;;;;2507573;23;20440;-71
2022/04/23 02:31:55;;;;;;;25.33;19.25;;;6.50;99.90;;;;;;2507548;23;20011;-72
2022/04/23 02:32:56;;;;;;;25.52;18.88;;;6.40;99.90;;;;;;2507684;23;20002;-72
2022/04/23 02:33:57;;;;;;;27.67;20.23;;;6.40;99.90;;;;;;2507144;23;20011;-72
2022/04/23 02:34:57;;;;;;;26.92;19.23;;;6.40;99.90;;;;;;2507631;23;20011;-72
2022/04/23 02:35:58;;;;;;;25.42;19.65;;;6.40;99.90;;;;;;2507594;23;20466;-72
2022/04/23 02:36:59;;;;;;;26.38;19.08;;;6.40;99.90;;;;;;2507535;23;20459;-71
2022/04/23 02:38:01;;;;;;;26.83;19.80;;;6.40;99.90;;;;;;2507450;23;20062;-72
2022/04/23 02:39:02;;;;;;;25.92;19.30;;;6.40;99.90;;;;;;2507659;23;20330;-72
2022/04/23 02:40:07;;;;;;;24.70;19.02;;;6.40;99.90;;;;;;2507981;23;20011;-72
2022/04/23 02:41:09;;;;;;;25.45;18.67;;;6.30;99.90;;;;;;2495261;23;20014;-73
2022/04/23 02:42:09;;;;;;;26.55;19.75;;;6.30;99.90;;;;;;2495752;23;20011;-73
2022/04/23 02:43:12;;;;;;;26.90;20.25;;;6.30;99.90;;;;;;2507514;23;20046;-72
2022/04/23 02:44:15;;;;;;;27.58;20.23;;;6.30;99.90;;;;;;2507972;23;20003;-72
2022/04/23 02:45:16;;;;;;;26.80;19.95;;;6.30;99.90;;;;;;2507950;23;20003;-72
2022/04/23 02:46:17;;;;;;;26.15;19.27;;;6.30;99.90;;;;;;2508140;23;20674;-72
2022/04/23 02:47:18;;;;;;;28.48;20.23;;;6.20;99.90;;;;;;2507990;23;20087;-72
2022/04/23 02:48:19;;;;;;;28.00;20.15;;;6.20;99.90;;;;;;2508041;23;20010;-73
2022/04/23 02:49:19;;;;;;;28.80;20.60;;;6.20;99.90;;;;;;2507714;23;20328;-70
2022/04/23 02:50:32;;;;;;;27.67;20.27;;;6.20;99.90;;;;;;2507376;23;20062;-71
2022/04/23 02:51:33;;;;;;;28.15;19.83;;;6.10;99.90;;;;;;2507778;23;20019;-70
2022/04/23 02:52:34;;;;;;;27.52;20.20;;;6.10;99.90;;;;;;2507555;23;20010;-71
2022/04/23 02:53:34;;;;;;;26.65;19.48;;;6.10;99.90;;;;;;2506922;23;20011;-72
2022/04/23 02:54:35;;;;;;;25.65;19.90;;;6.10;99.90;;;;;;2507522;23;20010;-71
2022/04/23 02:55:37;;;;;;;26.48;19.58;;;6.10;99.90;;;;;;2507466;23;20060;-71
2022/04/23 02:56:38;;;;;;;28.38;20.55;;;6.10;99.90;;;;;;2507386;23;20479;-71
2022/04/23 02:57:42;;;;;;;26.80;20.17;;;6.00;99.90;;;;;;2507526;23;20007;-71
2022/04/23 02:58:44;;;;;;;28.15;20.27;;;6.00;99.90;;;;;;2507578;23;20007;-72
2022/04/23 02:59:44;;;;;;;27.80;20.25;;;6.00;99.90;;;;;;2507392;23;20014;-72
2022/04/23 03:00:45;;;;;;;28.60;20.67;;;6.00;99.90;;;;;;2507460;23;20038;-72
2022/04/23 03:01:45;;;;;;;28.63;20.95;;;6.00;99.90;;;;;;2507629;23;20011;-72
2022/04/23 03:02:47;;;;;;;31.38;21.52;;;6.00;99.90;;;;;;2507439;23;20043;-72
2022/04/23 03:03:49;;;;;;;29.52;21.38;;;6.00;99.90;;;;;;2494697;23;20015;-72
2022/04/23 03:04:49;;;;;;;28.85;21.25;;;6.00;99.90;;;;;;2495243;23;20015;-72
2022/04/23 03:05:53;;;;;;;29.17;21.23;;;6.00;99.90;;;;;;2507552;23;20013;-71
2022/04/23 03:06:55;;;;;;;29.80;20.83;;;6.00;99.90;;;;;;2494855;23;20016;-72
2022/04/23 03:07:56;;;;;;;28.35;20.40;;;6.00;99.90;;;;;;2494980;23;20071;-72
2022/04/23 03:09:02;;;;;;;28.13;20.77;;;6.00;99.90;;;;;;2507483;23;20022;-72
2022/04/23 03:10:04;;;;;;;28.50;20.63;;;6.00;99.90;;;;;;2507488;23;20498;-71
2022/04/23 03:11:06;;;;;;;30.35;21.65;;;6.00;99.90;;;;;;2507531;23;20009;-70
2022/04/23 03:12:09;;;;;;;27.75;20.60;;;6.00;99.90;;;;;;2494957;23;20039;-72
2022/04/23 03:13:10;;;;;;;28.70;20.90;;;6.00;99.90;;;;;;2496322;23;20007;-71
2022/04/23 03:14:10;;;;;;;28.48;19.98;;;6.00;99.90;;;;;;2514121;23;20019;-71
2022/04/23 03:15:16;;;;;;;27.52;20.05;;;5.90;99.90;;;;;;2515944;23;20058;-73
2022/04/23 03:16:17;;;;;;;28.88;20.67;;;5.90;99.90;;;;;;2512796;23;20416;-70
2022/04/23 03:17:17;;;;;;;28.15;21.23;;;5.90;99.90;;;;;;2507944;23;20078;-71
2022/04/23 03:18:18;;;;;;;29.23;21.52;;;5.90;99.90;;;;;;2507644;23;20034;-71
2022/04/23 03:19:19;;;;;;;28.98;21.20;;;5.90;99.90;;;;;;2494949;23;20003;-71
2022/04/23 03:20:21;;;;;;;28.88;20.73;;;5.90;99.90;;;;;;2494816;23;20031;-71
2022/04/23 03:21:21;;;;;;;30.13;21.95;;;5.90;99.90;;;;;;2507684;23;20007;-70
2022/04/23 03:22:22;;;;;;;29.48;21.17;;;5.80;99.90;;;;;;2507658;23;20058;-70
2022/04/23 03:23:22;;;;;;;29.08;21.52;;;5.80;99.90;;;;;;2507408;23;20397;-70
2022/04/23 03:24:23;;;;;;;29.77;21.73;;;5.80;99.90;;;;;;2507544;23;20007;-72
2022/04/23 03:25:24;;;;;;;29.90;22.08;;;5.80;99.90;;;;;;2507227;23;20058;-71
2022/04/23 03:26:24;;;;;;;27.52;20.83;;;5.80;99.90;;;;;;2495042;23;20007;-70
2022/04/23 03:27:25;;;;;;;28.45;21.58;;;5.80;99.90;;;;;;2495092;23;20003;-71
2022/04/23 03:28:25;;;;;;;28.63;21.08;;;5.80;99.90;;;;;;2507516;23;20002;-71
2022/04/23 03:29:26;;;;;;;29.60;21.90;;;5.80;99.90;;;;;;2507599;23;20007;-71
2022/04/23 03:30:27;;;;;;;29.95;21.73;;;5.80;99.90;;;;;;2507364;23;20025;-71
2022/04/23 03:31:28;;;;;;;30.88;21.85;;;5.80;99.90;;;;;;2494781;23;20011;-71
2022/04/23 03:32:29;;;;;;;28.38;21.35;;;5.80;99.90;;;;;;2495144;23;20003;-71
2022/04/23 03:33:30;;;;;;;29.83;21.45;;;5.80;99.90;;;;;;2507437;23;20662;-71
2022/04/23 03:34:31;;;;;;;29.10;21.48;;;5.70;99.90;;;;;;2494885;23;20015;-71
2022/04/23 03:35:31;;;;;;;28.80;20.95;;;5.70;99.90;;;;;;2483188;23;20449;-71
2022/04/23 03:36:32;;;;;;;28.67;20.38;;;5.70;99.90;;;;;;2483073;23;20007;-71
2022/04/23 03:37:33;;;;;;;27.58;20.45;;;5.70;99.90;;;;;;2494855;23;20011;-71
2022/04/23 03:38:35;;;;;;;27.77;20.63;;;5.70;99.90;;;;;;2507378;23;20022;-71
2022/04/23 03:39:36;;;;;;;27.88;20.65;;;5.60;99.90;;;;;;2507393;23;20348;-71
2022/04/23 03:40:36;;;;;;;27.80;21.02;;;5.60;99.90;;;;;;2507217;23;20015;-71
2022/04/23 03:41:37;;;;;;;27.88;21.00;;;5.60;99.90;;;;;;2494621;23;20015;-71
2022/04/23 03:42:38;;;;;;;29.23;21.27;;;5.60;99.90;;;;;;2494882;23;20016;-71
2022/04/23 03:43:39;;;;;;;30.10;20.88;;;5.60;99.90;;;;;;2507096;23;20010;-71
2022/04/23 03:44:39;;;;;;;28.45;21.02;;;5.60;99.90;;;;;;2494703;23;20004;-71
2022/04/23 03:45:40;;;;;;;30.33;22.15;;;5.60;99.90;;;;;;2494599;23;20003;-71
2022/04/23 03:46:40;;;;;;;29.60;21.77;;;5.60;99.90;;;;;;2507289;23;20015;-71
2022/04/23 03:47:45;;;;;;;29.73;21.70;;;5.60;99.90;;;;;;2507368;23;20432;-71
2022/04/23 03:48:46;;;;;;;28.23;20.50;;;5.60;99.90;;;;;;2507020;23;20447;-71
2022/04/23 03:49:47;;;;;;;31.33;22.38;;;5.60;99.90;;;;;;2507180;23;20003;-71
2022/04/23 03:50:48;;;;;;;29.90;21.55;;;5.60;99.90;;;;;;2507199;23;20365;-71
2022/04/23 03:51:52;;;;;;;29.23;21.48;;;5.50;99.90;;;;;;2507275;23;20017;-71
2022/04/23 03:52:53;;;;;;;32.40;22.75;;;5.50;99.90;;;;;;2494869;23;20066;-71
2022/04/23 03:53:54;;;;;;;33.33;24.00;;;5.50;99.90;;;;;;2494507;23;20038;-71
2022/04/23 03:54:54;;;;;;;32.10;22.80;;;5.50;99.90;;;;;;2507236;23;20010;-71
2022/04/23 03:55:55;;;;;;;32.05;22.88;;;5.50;99.90;;;;;;2507652;23;20444;-71
2022/04/23 03:56:55;;;;;;;34.60;23.35;;;5.50;99.90;;;;;;2507332;23;20017;-71
2022/04/23 03:57:56;;;;;;;31.88;23.50;;;5.50;99.90;;;;;;2507319;23;20036;-71
2022/04/23 03:58:57;;;;;;;32.10;23.35;;;5.50;99.90;;;;;;2507340;23;20066;-71
2022/04/23 04:00:06;;;;;;;32.15;23.20;;;5.50;99.90;;;;;;2507232;23;20015;-71
2022/04/23 04:01:07;;;;;;;33.17;24.10;;;5.50;99.90;;;;;;2507081;23;20050;-71
2022/04/23 04:02:07;;;;;;;35.80;24.55;;;5.50;99.90;;;;;;2494357;23;20007;-71
2022/04/23 04:03:08;;;;;;;34.90;24.52;;;5.60;99.90;;;;;;2494253;23;20468;-71
2022/04/23 04:04:09;;;;;;;33.60;24.52;;;5.60;99.90;;;;;;2507306;23;20703;-71
2022/04/23 04:05:10;;;;;;;33.53;24.23;;;5.60;99.90;;;;;;2494622;23;20017;-72
2022/04/23 04:06:11;;;;;;;33.92;23.98;;;5.60;99.90;;;;;;2495047;23;20079;-71
2022/04/23 04:07:19;;;;;;;33.67;24.27;;;5.60;99.90;;;;;;2507289;23;20015;-70
2022/04/23 04:08:20;;;;;;;32.50;23.23;;;5.60;99.90;;;;;;2494714;23;20011;-71
2022/04/23 04:09:20;;;;;;;31.73;23.35;;;5.60;99.90;;;;;;2494844;23;20003;-71
2022/04/23 04:10:22;;;;;;;32.38;23.20;;;5.60;99.90;;;;;;2507159;23;20029;-71
2022/04/23 04:11:23;;;;;;;32.83;23.40;;;5.60;99.90;;;;;;2507406;23;19994;-73
2022/04/23 04:12:23;;;;;;;32.17;22.42;;;5.60;99.90;;;;;;2507299;23;20105;-70
2022/04/23 04:13:25;;;;;;;32.83;23.63;;;5.60;99.90;;;;;;2494417;23;20044;-71
2022/04/23 04:14:26;;;;;;;32.45;23.40;;;5.60;99.90;;;;;;2494504;23;19999;-71
2022/04/23 04:15:27;;;;;;;32.63;23.15;;;5.60;99.90;;;;;;2507517;23;20038;-71
2022/04/23 04:16:27;;;;;;;31.00;22.73;;;5.60;99.90;;;;;;2507374;23;20038;-70
2022/04/23 04:17:28;;;;;;;32.80;23.50;;;5.60;99.90;;;;;;2507506;23;20010;-71
2022/04/23 04:18:29;;;;;;;30.95;23.10;;;5.60;99.90;;;;;;2507565;23;20013;-70
2022/04/23 04:19:32;;;;;;;33.45;23.88;;;5.60;99.90;;;;;;2507665;23;20448;-71
2022/04/23 04:20:33;;;;;;;33.35;24.25;;;5.60;99.90;;;;;;2507145;23;20007;-71
2022/04/23 04:21:33;;;;;;;34.00;23.75;;;5.60;99.90;;;;;;2507414;23;20249;-71
2022/04/23 04:22:35;;;;;;;33.58;23.98;;;5.60;99.90;;;;;;2507241;23;20019;-71
2022/04/23 04:23:36;;;;;;;32.60;23.85;;;5.60;99.90;;;;;;2506447;23;20022;-71
2022/04/23 04:24:37;;;;;;;34.90;24.45;;;5.60;99.90;;;;;;2494949;23;20011;-71
2022/04/23 04:25:38;;;;;;;32.50;24.30;;;5.60;99.90;;;;;;2495061;23;20475;-70
2022/04/23 04:26:43;;;;;;;32.65;24.05;;;5.60;99.90;;;;;;2507643;23;20018;-71
2022/04/23 04:27:44;;;;;;;36.38;24.80;;;5.60;99.90;;;;;;2507460;23;20579;-71
2022/04/23 04:28:44;;;;;;;35.28;25.27;;;5.60;99.90;;;;;;2507054;23;20041;-71
2022/04/23 04:29:45;;;;;;;34.20;24.73;;;5.70;99.90;;;;;;2507467;23;20011;-71
2022/04/23 04:32:07;;;;;;;35.38;24.70;;;5.70;99.90;;;;;;2507649;23;20006;-71
2022/04/23 04:33:08;;;;;;;32.25;23.63;;;5.70;99.90;;;;;;2507257;23;20007;-71
2022/04/23 04:34:08;;;;;;;32.60;23.60;;;5.70;99.90;;;;;;2507614;23;20108;-71
2022/04/23 04:35:10;;;;;;;33.88;24.25;;;5.80;99.90;;;;;;2494657;23;20463;-71
2022/04/23 04:36:10;;;;;;;32.33;23.67;;;5.80;99.90;;;;;;2494868;23;20432;-72
2022/04/23 04:37:12;;;;;;;36.42;25.17;;;5.80;99.90;;;;;;2506264;23;20059;-73
2022/04/23 04:38:13;;;;;;;34.60;24.55;;;5.90;99.90;;;;;;2494618;23;20007;-72
2022/04/23 04:39:14;;;;;;;33.47;24.02;;;5.90;99.90;;;;;;2495480;23;20008;-71
2022/04/23 04:40:15;;;;;;;33.53;24.25;;;5.90;99.90;;;;;;2495544;23;20440;-70
2022/04/23 04:41:16;;;;;;;32.55;23.75;;;5.90;99.90;;;;;;2506514;23;20031;-71
2022/04/23 04:42:16;;;;;;;33.33;23.90;;;5.90;99.90;;;;;;2506770;23;20732;-71
2022/04/23 04:43:17;;;;;;;33.13;24.30;;;6.00;99.90;;;;;;2495235;23;20500;-71
2022/04/23 04:44:18;;;;;;;31.70;23.08;;;6.10;99.90;;;;;;2495746;23;20035;-71
2022/04/23 04:45:19;;;;;;;35.55;24.65;;;6.10;99.90;;;;;;2495688;23;20010;-72
2022/04/23 04:46:19;;;;;;;33.20;24.08;;;6.20;99.90;;;;;;2495755;23;20010;-70
2022/04/23 04:47:20;;;;;;;30.65;23.35;;;6.30;99.90;;;;;;2495880;23;20008;-71
2022/04/23 04:48:20;;;;;;;32.05;23.52;;;6.50;99.90;;;;;;2495640;23;20003;-71
2022/04/23 04:49:22;;;;;;;30.65;22.42;;;6.60;99.90;;;;;;2495600;23;20007;-73
2022/04/23 04:50:23;;;;;;;29.20;21.90;;;6.80;99.90;;;;;;2495659;23;20452;-71
2022/04/23 04:51:24;;;;;;;29.80;22.10;;;6.90;99.90;;;;;;2495827;23;20448;-72
2022/04/23 04:52:24;;;;;;;28.88;21.67;;;7.10;99.90;;;;;;2495987;23;20067;-71
2022/04/23 04:53:25;;;;;;;28.75;22.23;;;7.20;99.90;;;;;;2495354;23;20019;-71
2022/04/23 04:54:25;;;;;;;32.13;24.17;;;7.40;99.90;;;;;;2495783;23;20361;-71
2022/04/23 04:55:27;;;;;;;33.78;25.40;;;7.40;99.90;;;;;;2495685;23;20007;-71
2022/04/23 04:56:27;;;;;;;33.63;25.52;;;7.50;99.90;;;;;;2506792;23;20006;-71
2022/04/23 04:57:28;;;;;;;34.25;26.10;;;7.70;99.90;;;;;;2506764;23;20006;-70
2022/04/23 04:58:28;;;;;;;34.28;25.75;;;7.70;99.90;;;;;;2506878;23;20407;-71
2022/04/23 04:59:32;;;;;;;31.65;24.27;;;7.90;99.90;;;;;;2507188;23;20344;-71
2022/04/23 05:00:33;;;;;;;32.85;23.60;;;8.00;99.90;;;;;;2495830;23;20389;-71
2022/04/23 05:01:33;;;;;;;31.52;23.08;;;8.10;99.90;;;;;;2496024;23;20007;-71
2022/04/23 05:02:34;;;;;;;29.42;22.40;;;8.20;99.90;;;;;;2498814;23;20105;-70
2022/04/23 05:03:35;;;;;;;29.48;22.20;;;8.30;99.90;;;;;;2514216;23;20014;-72
2022/04/23 05:04:36;;;;;;;29.70;21.73;;;8.40;99.90;;;;;;2503001;23;20008;-70
2022/04/23 05:05:36;;;;;;;29.73;21.58;;;8.70;99.90;;;;;;2498063;23;20616;-73
2022/04/23 05:06:37;;;;;;;25.58;19.98;;;9.00;99.90;;;;;;2506551;23;20077;-72
2022/04/23 05:07:38;;;;;;;27.05;20.50;;;9.30;99.90;;;;;;2495613;23;20013;-71
2022/04/23 05:08:39;;;;;;;25.83;20.38;;;9.50;99.90;;;;;;2495455;23;20011;-71
2022/04/23 05:09:39;;;;;;;28.48;21.10;;;9.80;99.90;;;;;;2495709;23;20003;-72
2022/04/23 05:10:40;;;;;;;27.35;20.65;;;10.10;99.90;;;;;;2495709;23;20010;-72
2022/04/23 05:11:40;;;;;;;25.50;19.42;;;10.30;99.90;;;;;;2495746;23;20007;-72
2022/04/23 05:12:41;;;;;;;23.75;18.92;;;10.50;99.90;;;;;;2496195;23;20007;-72
2022/04/23 05:13:41;;;;;;;24.67;19.35;;;10.80;99.90;;;;;;2495828;23;20075;-72
2022/04/23 05:14:42;;;;;;;27.27;20.15;;;11.00;99.90;;;;;;2495841;23;20007;-71
2022/04/23 05:15:45;;;;;;;24.98;19.50;;;11.10;99.90;;;;;;2496436;23;20090;-72